Time;durP1;ratioP1;P1;durP2;ratioP2;P2;SDS_P1;SDS_P2;PMS_P1;PMS_P2;Temp;Humidity;BMP_temperature;BMP_pressure;BME280_temperature;BME280_humidity;BME280_pressure;Samples;Min_cycle;Max_cycle;Signal;HPM_P1;HPM_P2
2023/01/28 00:00:08;;;;;;;4.25;2.20;;;2.90;99.90;;;;;;5072532;28;20526;-73
2023/01/28 00:02:34;;;;;;;5.28;2.80;;;2.90;99.90;;;;;;5073476;28;20133;-73
2023/01/28 00:05:00;;;;;;;4.32;2.17;;;2.90;99.90;;;;;;5072807;28;20500;-73
2023/01/28 00:07:26;;;;;;;5.35;2.60;;;2.90;99.90;;;;;;5072458;28;20052;-73
2023/01/28 00:09:52;;;;;;;5.88;2.67;;;2.90;99.90;;;;;;5072611;28;20131;-74
2023/01/28 00:12:17;;;;;;;4.38;2.15;;;2.80;99.90;;;;;;5072386;28;20466;-73
2023/01/28 00:14:45;;;;;;;3.95;2.53;;;2.90;99.90;;;;;;5072370;28;20048;-73
2023/01/28 00:17:11;;;;;;;4.53;2.40;;;2.90;99.90;;;;;;5106175;28;20080;-73
2023/01/28 00:19:37;;;;;;;6.55;2.92;;;2.90;99.90;;;;;;5072257;28;20091;-73
2023/01/28 00:22:03;;;;;;;4.13;2.42;;;2.90;99.90;;;;;;5106122;28;20508;-73
2023/01/28 00:24:29;;;;;;;4.13;2.40;;;2.90;99.90;;;;;;5072249;28;20049;-73
2023/01/28 00:26:54;;;;;;;5.28;2.75;;;2.80;99.90;;;;;;5072475;28;20055;-73
2023/01/28 00:29:23;;;;;;;7.28;2.97;;;2.80;99.90;;;;;;5071988;28;20483;-73
2023/01/28 00:31:48;;;;;;;3.97;2.42;;;2.80;99.90;;;;;;5072278;28;20551;-73
2023/01/28 00:34:14;;;;;;;5.00;2.90;;;2.80;99.90;;;;;;5072537;28;20131;-73
2023/01/28 00:36:41;;;;;;;6.07;2.83;;;2.80;99.90;;;;;;5072269;28;20454;-73
2023/01/28 00:39:12;;;;;;;5.25;2.40;;;2.80;99.90;;;;;;5072131;28;20438;-73
2023/01/28 00:41:38;;;;;;;4.78;2.40;;;2.80;99.90;;;;;;5072404;28;20048;-73
2023/01/28 00:44:03;;;;;;;4.60;2.70;;;2.80;99.90;;;;;;5071995;28;20071;-73
2023/01/28 00:46:29;;;;;;;5.50;2.92;;;2.80;99.90;;;;;;5072058;28;20480;-73
2023/01/28 00:48:55;;;;;;;5.47;2.90;;;2.80;99.90;;;;;;5072050;28;20056;-73
2023/01/28 00:51:27;;;;;;;5.53;3.10;;;2.80;99.90;;;;;;5071909;28;20086;-73
2023/01/28 00:53:52;;;;;;;5.13;2.75;;;2.90;99.90;;;;;;5072251;28;20499;-73
2023/01/28 00:56:18;;;;;;;5.20;3.33;;;2.80;99.90;;;;;;5071974;28;20068;-73
2023/01/28 00:58:44;;;;;;;5.00;2.97;;;2.90;99.90;;;;;;5072225;28;20131;-73
2023/01/28 01:01:21;;;;;;;5.68;2.83;;;2.80;99.90;;;;;;5071807;28;20132;-73
2023/01/28 01:03:53;;;;;;;5.78;3.03;;;2.80;99.90;;;;;;5072039;28;20048;-73
2023/01/28 01:06:19;;;;;;;5.88;2.53;;;2.80;99.90;;;;;;5072089;28;20029;-73
2023/01/28 01:08:50;;;;;;;5.22;2.65;;;2.80;99.90;;;;;;5105625;28;20372;-73
2023/01/28 01:11:16;;;;;;;6.60;3.00;;;2.80;99.90;;;;;;5071861;28;20075;-73
2023/01/28 01:13:42;;;;;;;6.32;2.72;;;2.70;99.90;;;;;;5072156;28;20049;-73
2023/01/28 01:16:15;;;;;;;6.13;2.70;;;2.80;99.90;;;;;;5075506;28;20037;-73
2023/01/28 01:18:54;;;;;;;6.78;3.25;;;2.80;99.90;;;;;;5075688;28;20385;-73
2023/01/28 01:21:22;;;;;;;5.50;2.80;;;2.80;99.90;;;;;;5075535;28;20040;-73
2023/01/28 01:23:48;;;;;;;5.63;3.20;;;2.80;99.90;;;;;;5075648;28;20067;-73
2023/01/28 01:26:14;;;;;;;5.35;2.83;;;2.70;99.90;;;;;;5076791;28;20507;-73
2023/01/28 01:28:40;;;;;;;4.90;2.70;;;2.80;99.90;;;;;;5076188;28;20488;-73
2023/01/28 01:31:15;;;;;;;6.22;3.08;;;2.80;99.90;;;;;;5075206;28;20045;-73
2023/01/28 01:33:41;;;;;;;6.28;3.33;;;2.80;99.90;;;;;;5075490;28;20060;-73
2023/01/28 01:36:08;;;;;;;5.90;3.60;;;2.70;99.90;;;;;;5075056;28;20403;-73
2023/01/28 01:38:35;;;;;;;9.13;3.65;;;2.80;99.90;;;;;;5075217;28;20131;-73
2023/01/28 01:41:02;;;;;;;7.22;3.40;;;2.70;99.90;;;;;;5075277;28;20059;-73
2023/01/28 01:43:56;;;;;;;7.70;3.50;;;2.70;99.90;;;;;;5074927;28;20050;-73
2023/01/28 01:46:31;;;;;;;6.63;3.08;;;2.70;99.90;;;;;;5075305;28;20044;-73
2023/01/28 01:49:13;;;;;;;6.20;2.80;;;2.70;99.90;;;;;;5075034;28;20044;-73
2023/01/28 01:51:39;;;;;;;6.85;2.78;;;2.70;99.90;;;;;;5075062;28;20073;-73
2023/01/28 01:54:06;;;;;;;5.93;2.90;;;2.70;99.90;;;;;;5075057;28;20135;-73
2023/01/28 01:56:37;;;;;;;5.95;3.28;;;2.70;99.90;;;;;;5075073;28;20131;-73
2023/01/28 01:59:04;;;;;;;6.50;3.80;;;2.70;99.90;;;;;;5074817;28;20040;-73
2023/01/28 02:01:31;;;;;;;6.10;3.25;;;2.70;99.90;;;;;;5074817;28;20178;-73
2023/01/28 02:04:03;;;;;;;7.28;3.25;;;2.70;99.90;;;;;;5076075;28;20041;-73
2023/01/28 02:06:30;;;;;;;6.63;3.10;;;2.70;99.90;;;;;;5075834;28;20055;-73
2023/01/28 02:08:56;;;;;;;5.45;2.92;;;2.70;99.90;;;;;;5074496;28;20049;-73
2023/01/28 02:11:26;;;;;;;8.25;3.30;;;2.60;99.90;;;;;;5074845;28;20541;-73
2023/01/28 02:13:56;;;;;;;6.13;3.15;;;2.70;99.90;;;;;;5074569;28;20048;-73
2023/01/28 02:16:22;;;;;;;5.35;3.10;;;2.70;99.90;;;;;;5074849;28;20040;-73
2023/01/28 02:18:51;;;;;;;4.75;2.92;;;2.60;99.90;;;;;;5074515;28;20075;-73
2023/01/28 02:21:40;;;;;;;5.13;2.65;;;2.60;99.90;;;;;;5074260;28;20124;-73
2023/01/28 02:24:39;;;;;;;5.38;2.90;;;2.60;99.90;;;;;;5075887;28;20044;-73
2023/01/28 02:27:21;;;;;;;6.82;3.50;;;2.70;99.90;;;;;;5075277;28;20126;-73
2023/01/28 02:30:11;;;;;;;5.63;3.03;;;2.60;99.90;;;;;;5074213;28;20084;-73
2023/01/28 02:32:59;;;;;;;6.45;3.40;;;2.60;99.90;;;;;;5074221;28;20505;-73
2023/01/28 02:35:40;;;;;;;7.30;3.92;;;2.60;99.90;;;;;;5074271;28;20056;-73
2023/01/28 02:38:30;;;;;;;7.22;4.20;;;2.60;99.90;;;;;;5074321;28;20045;-73
2023/01/28 02:41:05;;;;;;;6.72;3.72;;;2.60;99.90;;;;;;5075438;28;20040;-73
2023/01/28 02:43:43;;;;;;;10.73;4.40;;;2.60;99.90;;;;;;5108243;28;20086;-73
2023/01/28 02:49:19;;;;;;;7.97;4.53;;;2.50;99.90;;;;;;5073623;28;20052;-73
2023/01/28 02:55:26;;;;;;;12.85;4.75;;;2.60;99.90;;;;;;5073759;28;20131;-73
2023/01/28 02:58:30;;;;;;;8.80;4.85;;;2.50;99.90;;;;;;5073956;28;20391;-73
2023/01/28 03:01:17;;;;;;;11.40;5.32;;;2.50;99.90;;;;;;5036252;28;20049;-73
2023/01/28 03:04:03;;;;;;;10.52;5.25;;;2.50;99.90;;;;;;5072178;28;20052;-73
2023/01/28 03:06:43;;;;;;;9.57;5.18;;;2.50;99.90;;;;;;5073543;28;20059;-73
2023/01/28 03:09:23;;;;;;;9.05;5.25;;;2.50;99.90;;;;;;5073328;28;20076;-73
2023/01/28 03:38:32;;;;;;;8.82;5.47;;;2.50;99.90;;;;;;5072377;28;20053;-73
2023/01/28 03:41:01;;;;;;;10.30;5.85;;;2.50;99.90;;;;;;5073165;28;20074;-73
2023/01/28 03:43:30;;;;;;;9.57;6.00;;;2.50;99.90;;;;;;5073086;28;20080;-73
2023/01/28 03:45:56;;;;;;;9.38;5.78;;;2.50;99.90;;;;;;5074027;28;20040;-73
2023/01/28 03:48:24;;;;;;;10.75;5.20;;;2.50;99.90;;;;;;5072693;28;20044;-73
2023/01/28 03:50:50;;;;;;;10.50;6.65;;;2.40;99.90;;;;;;5072631;28;20117;-73
2023/01/28 03:53:20;;;;;;;9.25;5.20;;;2.40;99.90;;;;;;5072904;28;20048;-73
2023/01/28 03:55:47;;;;;;;11.32;5.57;;;2.50;99.90;;;;;;5106524;28;20471;-73
2023/01/28 03:58:14;;;;;;;10.38;6.00;;;2.40;99.90;;;;;;5072673;28;20108;-73
2023/01/28 04:00:42;;;;;;;10.32;6.00;;;2.40;99.90;;;;;;5072627;28;20553;-73
2023/01/28 04:03:15;;;;;;;8.52;5.35;;;2.50;99.90;;;;;;5072668;28;20044;-73
2023/01/28 04:05:45;;;;;;;10.82;5.63;;;2.50;99.90;;;;;;5072726;28;20495;-73
2023/01/28 04:08:11;;;;;;;9.55;5.35;;;2.40;99.90;;;;;;5072688;28;20049;-73
2023/01/28 04:10:40;;;;;;;9.93;4.93;;;2.40;99.90;;;;;;5072537;28;20059;-73
2023/01/28 04:13:06;;;;;;;9.82;5.25;;;2.40;99.90;;;;;;5072615;28;20040;-73
2023/01/28 04:15:32;;;;;;;9.50;5.47;;;2.50;99.90;;;;;;5072226;28;20426;-73
2023/01/28 04:17:57;;;;;;;11.45;6.18;;;2.40;99.90;;;;;;5072544;28;20109;-73
2023/01/28 04:20:23;;;;;;;11.00;5.65;;;2.50;99.90;;;;;;5072719;28;20041;-73
2023/01/28 04:22:49;;;;;;;9.85;5.95;;;2.40;99.90;;;;;;5072414;28;20422;-74
2023/01/28 04:25:14;;;;;;;9.23;5.78;;;2.40;99.90;;;;;;5072648;28;20046;-73
2023/01/28 04:27:40;;;;;;;8.95;4.97;;;2.40;99.90;;;;;;5072037;28;20075;-73
2023/01/28 04:30:07;;;;;;;8.57;5.18;;;2.40;99.90;;;;;;5072266;28;20095;-73
2023/01/28 04:32:32;;;;;;;11.55;5.82;;;2.40;99.90;;;;;;5072161;28;20089;-73
2023/01/28 04:34:58;;;;;;;9.20;5.57;;;2.40;99.90;;;;;;5072186;28;20048;-73
2023/01/28 04:37:23;;;;;;;9.13;5.32;;;2.40;99.90;;;;;;5073569;28;20033;-73
2023/01/28 04:39:49;;;;;;;9.10;5.63;;;2.40;99.90;;;;;;5072211;28;20472;-73
2023/01/28 04:42:15;;;;;;;9.55;5.35;;;2.40;99.90;;;;;;5073440;28;20125;-73
2023/01/28 04:44:40;;;;;;;10.50;6.45;;;2.40;99.90;;;;;;5072320;28;20048;-73
2023/01/28 04:47:06;;;;;;;9.85;5.43;;;2.30;99.90;;;;;;5071977;28;20056;-73
2023/01/28 04:49:31;;;;;;;11.18;6.40;;;2.40;99.90;;;;;;5073094;28;20044;-73
2023/01/28 04:51:57;;;;;;;10.93;5.65;;;2.40;99.90;;;;;;5109975;28;20040;-73
2023/01/28 04:54:23;;;;;;;11.85;5.65;;;2.40;99.90;;;;;;5076074;28;20071;-73
2023/01/28 04:56:48;;;;;;;12.25;5.95;;;2.30;99.90;;;;;;5077444;28;20047;-73
2023/01/28 04:59:14;;;;;;;8.93;5.18;;;2.30;99.90;;;;;;5075949;28;20074;-73
2023/01/28 05:01:40;;;;;;;10.48;5.85;;;2.30;99.90;;;;;;5077311;28;20502;-74
2023/01/28 05:04:05;;;;;;;9.32;5.05;;;2.30;99.90;;;;;;5075832;28;20090;-73
2023/01/28 05:06:32;;;;;;;9.70;5.50;;;2.30;99.90;;;;;;5075762;28;20070;-73
2023/01/28 05:08:57;;;;;;;9.50;5.35;;;2.30;99.90;;;;;;5075743;28;20465;-73
2023/01/28 05:11:23;;;;;;;11.85;5.95;;;2.30;99.90;;;;;;5076040;28;20123;-73
2023/01/28 05:13:50;;;;;;;8.63;5.10;;;2.20;99.90;;;;;;5075802;28;20055;-73
2023/01/28 05:16:15;;;;;;;11.75;6.72;;;2.30;99.90;;;;;;5075536;28;20048;-73
2023/01/28 05:18:41;;;;;;;11.60;5.53;;;2.30;99.90;;;;;;5075565;28;20078;-73
2023/01/28 05:21:07;;;;;;;9.63;5.03;;;2.30;99.90;;;;;;5075498;28;20032;-73
2023/01/28 05:23:32;;;;;;;9.68;5.38;;;2.30;99.90;;;;;;5075529;28;20036;-73
2023/01/28 05:25:58;;;;;;;9.20;5.50;;;2.30;99.90;;;;;;5075425;28;20044;-73
2023/01/28 05:28:28;;;;;;;9.75;5.97;;;2.30;99.90;;;;;;5075157;28;20080;-73
2023/01/28 05:30:53;;;;;;;12.63;6.07;;;2.30;99.90;;;;;;5075009;28;20048;-73
2023/01/28 05:33:19;;;;;;;11.75;5.22;;;2.30;99.90;;;;;;5075217;28;20052;-73
2023/01/28 05:35:44;;;;;;;10.25;5.43;;;2.20;99.90;;;;;;5075250;28;20503;-73
2023/01/28 05:38:10;;;;;;;8.85;4.85;;;2.20;99.90;;;;;;5075534;28;20083;-73
2023/01/28 05:40:36;;;;;;;10.30;4.80;;;2.30;99.90;;;;;;5075235;28;20376;-73
2023/01/28 05:43:01;;;;;;;10.57;5.60;;;2.30;99.90;;;;;;5075233;28;20475;-73
2023/01/28 05:45:27;;;;;;;9.85;5.45;;;2.30;99.90;;;;;;5075155;28;20048;-73
2023/01/28 05:47:52;;;;;;;12.50;5.60;;;2.20;99.90;;;;;;5074950;28;20040;-73
2023/01/28 05:50:18;;;;;;;11.55;5.75;;;2.30;99.90;;;;;;5074992;28;20040;-73
2023/01/28 05:52:47;;;;;;;10.45;5.38;;;2.30;99.90;;;;;;5074946;28;20072;-74
2023/01/28 05:55:12;;;;;;;12.43;5.80;;;2.30;99.90;;;;;;5076328;28;20044;-73
2023/01/28 05:57:38;;;;;;;11.93;5.70;;;2.30;99.90;;;;;;5074937;28;20052;-73
2023/01/28 06:00:04;;;;;;;9.30;4.82;;;2.20;99.90;;;;;;5074548;28;20037;-73
2023/01/28 06:02:30;;;;;;;12.00;5.55;;;2.30;99.90;;;;;;5074729;28;20124;-73
2023/01/28 06:04:55;;;;;;;11.05;5.70;;;2.30;99.90;;;;;;5074766;28;20123;-73
2023/01/28 06:07:22;;;;;;;14.25;5.80;;;2.30;99.90;;;;;;5074574;28;20044;-73
2023/01/28 06:09:48;;;;;;;10.32;5.13;;;2.30;99.90;;;;;;5074987;28;20060;-73
2023/01/28 06:12:14;;;;;;;9.55;5.10;;;2.30;99.90;;;;;;5074464;28;20051;-73
2023/01/28 06:14:41;;;;;;;10.15;5.53;;;2.20;99.90;;;;;;5074746;28;20048;-73
2023/01/28 06:17:07;;;;;;;12.07;5.53;;;2.20;99.90;;;;;;5075789;28;20088;-73
2023/01/28 06:19:33;;;;;;;12.30;5.68;;;2.20;99.90;;;;;;5074468;28;20127;-73
2023/01/28 06:21:58;;;;;;;8.85;5.03;;;2.20;99.90;;;;;;5074702;28;20127;-73
2023/01/28 06:24:24;;;;;;;11.88;5.95;;;2.10;99.90;;;;;;5074652;28;20083;-73
2023/01/28 06:26:52;;;;;;;12.35;5.93;;;2.00;99.90;;;;;;5074214;28;20204;-73
2023/01/28 06:29:19;;;;;;;10.48;5.20;;;2.10;99.90;;;;;;5073901;28;20056;-73
2023/01/28 06:31:44;;;;;;;11.13;5.57;;;2.00;99.90;;;;;;5074219;28;20055;-73
2023/01/28 06:34:10;;;;;;;9.60;5.35;;;1.90;99.90;;;;;;5074239;28;20056;-73
2023/01/28 06:36:39;;;;;;;10.15;5.57;;;2.00;99.90;;;;;;5074216;28;20040;-74
2023/01/28 06:39:04;;;;;;;10.30;5.43;;;2.00;99.90;;;;;;5074328;28;20036;-73
2023/01/28 06:41:30;;;;;;;9.93;5.38;;;1.90;99.90;;;;;;5073949;28;20090;-73
2023/01/28 06:43:55;;;;;;;9.35;5.10;;;1.80;99.90;;;;;;5073901;28;20083;-73
2023/01/28 06:46:21;;;;;;;11.35;5.32;;;1.80;99.90;;;;;;5074075;28;20500;-73
2023/01/28 06:48:47;;;;;;;10.40;5.30;;;1.80;99.90;;;;;;5073771;28;20058;-74
2023/01/28 06:51:12;;;;;;;10.07;5.20;;;1.70;99.90;;;;;;5075214;28;20071;-73
2023/01/28 06:53:44;;;;;;;10.90;5.18;;;1.70;99.90;;;;;;5073862;28;20040;-74
2023/01/28 06:56:10;;;;;;;9.18;5.28;;;1.70;99.90;;;;;;5073921;28;20052;-73
2023/01/28 06:58:35;;;;;;;9.60;5.10;;;1.70;99.90;;;;;;5073768;28;20498;-73
2023/01/28 07:01:02;;;;;;;9.68;5.38;;;1.60;99.90;;;;;;5073639;28;20041;-73
2023/01/28 07:03:28;;;;;;;9.43;4.85;;;1.50;99.90;;;;;;5073687;28;20036;-73
2023/01/28 07:05:54;;;;;;;10.38;4.88;;;1.60;99.90;;;;;;5073598;28;20044;-73
2023/01/28 07:08:19;;;;;;;11.93;5.57;;;1.50;99.90;;;;;;5073468;28;20087;-73
2023/01/28 07:10:45;;;;;;;10.77;5.43;;;1.50;99.90;;;;;;5073217;28;20037;-73
2023/01/28 07:13:14;;;;;;;10.00;5.72;;;1.40;99.90;;;;;;5071589;28;20044;-73
2023/01/28 07:15:39;;;;;;;11.82;5.90;;;1.30;99.90;;;;;;5073211;28;20040;-73
2023/01/28 07:18:05;;;;;;;10.45;5.63;;;1.30;99.90;;;;;;5074577;28;20048;-73
2023/01/28 07:20:30;;;;;;;11.52;5.63;;;1.30;99.90;;;;;;5073073;28;20056;-73
2023/01/28 07:22:56;;;;;;;9.98;5.85;;;1.30;99.90;;;;;;5072918;28;20166;-73
2023/01/28 07:25:22;;;;;;;11.85;5.95;;;1.20;99.90;;;;;;5074440;28;20087;-73
2023/01/28 07:27:49;;;;;;;14.13;6.10;;;1.30;99.90;;;;;;5072831;28;20049;-73
2023/01/28 07:30:16;;;;;;;11.60;6.10;;;1.20;99.90;;;;;;5072850;28;20057;-74
2023/01/28 07:32:42;;;;;;;11.32;5.97;;;1.30;99.90;;;;;;5073180;28;20491;-74
2023/01/28 07:35:07;;;;;;;12.52;6.60;;;1.40;99.90;;;;;;5073045;28;20090;-74
2023/01/28 07:37:33;;;;;;;13.88;6.65;;;1.30;99.90;;;;;;5074183;28;20383;-74
2023/01/28 07:39:59;;;;;;;11.63;6.22;;;1.30;99.90;;;;;;5072690;28;20182;-74
2023/01/28 07:42:24;;;;;;;13.63;6.78;;;1.40;99.90;;;;;;5072950;28;20052;-73
2023/01/28 07:44:50;;;;;;;15.52;6.85;;;1.30;99.90;;;;;;5072810;28;20498;-73
2023/01/28 07:47:16;;;;;;;13.75;6.70;;;1.30;99.90;;;;;;5072742;28;20040;-73
2023/01/28 07:49:41;;;;;;;14.98;7.25;;;1.30;99.90;;;;;;5073737;28;20044;-74
2023/01/28 07:52:07;;;;;;;14.63;7.20;;;1.30;99.90;;;;;;5072384;28;20047;-74
2023/01/28 07:54:33;;;;;;;12.73;6.53;;;1.30;99.90;;;;;;5072466;28;20048;-74
2023/01/28 07:56:59;;;;;;;14.27;7.38;;;1.30;99.90;;;;;;5072410;28;20472;-73
2023/01/28 07:59:25;;;;;;;15.23;7.80;;;1.30;99.90;;;;;;5073920;28;20052;-74
2023/01/28 08:01:52;;;;;;;19.48;9.05;;;1.40;99.90;;;;;;5072628;28;20494;-73
2023/01/28 08:04:18;;;;;;;16.42;7.53;;;1.30;99.90;;;;;;5072375;28;20126;-73
2023/01/28 08:06:44;;;;;;;20.58;11.30;;;1.40;99.90;;;;;;5072354;28;20070;-74
2023/01/28 08:09:12;;;;;;;15.07;8.05;;;1.30;99.90;;;;;;5072274;28;20044;-74
2023/01/28 08:11:38;;;;;;;15.68;8.32;;;1.40;99.90;;;;;;5065302;28;20075;-73
2023/01/28 08:14:08;;;;;;;17.05;7.68;;;1.50;99.90;;;;;;5052573;28;20072;-74
2023/01/28 08:16:34;;;;;;;19.15;9.02;;;1.40;99.90;;;;;;5052264;28;20060;-72
2023/01/28 08:19:00;;;;;;;18.17;8.93;;;1.50;99.90;;;;;;5051800;28;20045;-72
2023/01/28 08:21:25;;;;;;;16.13;8.50;;;1.50;99.90;;;;;;5051912;28;20076;-73
2023/01/28 08:23:51;;;;;;;16.55;9.45;;;1.60;99.90;;;;;;5053267;28;20044;-73
2023/01/28 08:26:16;;;;;;;18.77;9.85;;;1.60;99.90;;;;;;5052131;28;20408;-73
2023/01/28 08:28:42;;;;;;;19.20;8.93;;;1.60;99.90;;;;;;5085234;28;20171;-73
2023/01/28 08:31:10;;;;;;;17.83;9.63;;;1.70;99.90;;;;;;5053177;28;20041;-72
2023/01/28 08:33:36;;;;;;;17.48;9.82;;;1.80;99.90;;;;;;5053267;28;20052;-72
2023/01/28 08:36:05;;;;;;;19.63;10.40;;;1.80;99.90;;;;;;5052979;28;20072;-73
2023/01/28 08:38:31;;;;;;;17.90;9.32;;;1.90;99.90;;;;;;5051675;28;20041;-73
2023/01/28 08:40:58;;;;;;;20.23;9.45;;;1.80;99.90;;;;;;5051670;28;20044;-73
2023/01/28 08:43:27;;;;;;;17.27;9.02;;;1.80;99.90;;;;;;5085240;28;20049;-73
2023/01/28 08:45:52;;;;;;;19.05;9.30;;;1.90;99.90;;;;;;5051832;28;20047;-74
2023/01/28 08:48:18;;;;;;;18.73;9.85;;;1.80;99.90;;;;;;5051624;28;20052;-73
2023/01/28 08:50:45;;;;;;;18.08;9.82;;;1.90;99.90;;;;;;5051578;28;20122;-73
2023/01/28 08:53:15;;;;;;;19.15;9.63;;;2.00;99.90;;;;;;5051812;28;20041;-73
2023/01/28 08:55:41;;;;;;;17.23;9.13;;;2.00;99.90;;;;;;5051842;28;20048;-73
2023/01/28 08:58:11;;;;;;;17.98;9.00;;;2.00;99.90;;;;;;5051739;28;20041;-73
2023/01/28 09:00:37;;;;;;;16.17;8.63;;;2.10;99.90;;;;;;5051644;28;20060;-73
2023/01/28 09:03:03;;;;;;;17.05;9.63;;;2.00;99.90;;;;;;5052534;28;20425;-72
2023/01/28 09:05:34;;;;;;;18.02;9.43;;;2.10;99.90;;;;;;5051450;28;20053;-73
2023/01/28 09:08:08;;;;;;;17.73;9.20;;;2.20;99.90;;;;;;5051320;28;20393;-73
2023/01/28 09:10:36;;;;;;;19.52;11.32;;;2.40;99.90;;;;;;5051938;28;20120;-73
2023/01/28 09:13:14;;;;;;;18.25;9.93;;;2.60;99.90;;;;;;5052623;28;20492;-73
2023/01/28 09:15:40;;;;;;;18.50;9.85;;;2.70;99.90;;;;;;5051373;28;20049;-73
2023/01/28 09:18:05;;;;;;;19.92;10.82;;;2.90;99.90;;;;;;5051504;28;20049;-73
2023/01/28 09:20:32;;;;;;;16.92;9.70;;;2.90;99.90;;;;;;5051589;28;20045;-73
2023/01/28 09:23:01;;;;;;;18.05;9.20;;;3.00;99.90;;;;;;5051211;28;20041;-73
2023/01/28 09:25:26;;;;;;;18.10;10.43;;;3.00;99.90;;;;;;5051177;28;20041;-73
2023/01/28 09:27:52;;;;;;;18.17;9.80;;;2.90;99.90;;;;;;5084459;28;20053;-73
2023/01/28 09:30:17;;;;;;;17.73;9.57;;;2.90;99.90;;;;;;5051208;28;20060;-73
2023/01/28 09:32:43;;;;;;;15.35;9.27;;;2.90;99.90;;;;;;5051376;28;20057;-73
2023/01/28 09:35:09;;;;;;;16.98;9.52;;;2.90;99.90;;;;;;5051859;28;20511;-73
2023/01/28 09:37:35;;;;;;;14.82;9.60;;;2.90;99.90;;;;;;5054842;28;20055;-73
2023/01/28 09:40:01;;;;;;;19.40;9.35;;;2.90;99.90;;;;;;5055032;28;20049;-73
2023/01/28 09:42:48;;;;;;;16.52;9.00;;;2.90;99.90;;;;;;5054929;28;20041;-73
2023/01/28 09:45:32;;;;;;;16.85;8.57;;;3.00;99.90;;;;;;5054912;28;20056;-73
2023/01/28 09:48:00;;;;;;;19.38;9.40;;;3.00;99.90;;;;;;5054574;28;20045;-73
2023/01/28 09:50:37;;;;;;;16.90;8.68;;;3.10;99.90;;;;;;5054500;28;20118;-73
2023/01/28 09:53:20;;;;;;;15.15;8.25;;;3.10;99.90;;;;;;5054534;28;20044;-73
2023/01/28 09:55:55;;;;;;;16.63;8.75;;;3.10;99.90;;;;;;5054769;28;20057;-73
2023/01/28 09:58:21;;;;;;;17.55;9.48;;;3.20;99.90;;;;;;5054495;28;20392;-73
2023/01/28 10:00:53;;;;;;;17.42;8.55;;;3.30;99.90;;;;;;5054652;28;20479;-73
2023/01/28 10:03:35;;;;;;;14.23;8.20;;;3.30;99.90;;;;;;5055573;28;20037;-73
2023/01/28 10:06:14;;;;;;;17.38;8.43;;;3.30;99.90;;;;;;5054664;28;20080;-73
2023/01/28 10:08:51;;;;;;;18.08;9.73;;;3.30;99.90;;;;;;5054732;28;20049;-73
2023/01/28 10:11:36;;;;;;;15.98;9.43;;;3.40;99.90;;;;;;5055592;28;20069;-73
2023/01/28 10:14:16;;;;;;;17.63;9.98;;;3.30;99.90;;;;;;5054265;28;20125;-73
2023/01/28 10:16:48;;;;;;;17.90;8.93;;;3.20;99.90;;;;;;5087882;28;20056;-73
2023/01/28 10:19:19;;;;;;;18.35;9.15;;;3.30;99.90;;;;;;5054140;28;20049;-73
2023/01/28 10:21:53;;;;;;;15.52;8.27;;;3.40;99.90;;;;;;5054326;28;20048;-73
2023/01/28 10:24:37;;;;;;;19.27;9.48;;;3.40;99.90;;;;;;5054218;28;20049;-73
2023/01/28 10:27:21;;;;;;;17.42;9.63;;;3.50;99.90;;;;;;5053980;28;20076;-73
2023/01/28 10:29:49;;;;;;;17.58;8.95;;;3.50;99.90;;;;;;5053749;28;20559;-73
2023/01/28 10:32:37;;;;;;;19.77;9.50;;;3.50;99.90;;;;;;5054004;28;20103;-73
2023/01/28 10:35:03;;;;;;;17.02;10.07;;;3.50;99.90;;;;;;5053803;28;20053;-72
2023/01/28 10:37:36;;;;;;;17.75;9.30;;;3.50;99.90;;;;;;5053941;28;20057;-72
2023/01/28 10:40:03;;;;;;;15.55;8.10;;;3.50;99.90;;;;;;5055241;28;20045;-73
2023/01/28 10:42:32;;;;;;;15.60;8.57;;;3.60;99.90;;;;;;5053848;28;20454;-72
2023/01/28 10:45:22;;;;;;;17.27;8.27;;;3.70;99.90;;;;;;5053577;28;20040;-73
2023/01/28 10:48:02;;;;;;;15.55;8.57;;;3.80;99.90;;;;;;5053703;28;20052;-73
2023/01/28 10:50:30;;;;;;;14.52;8.20;;;3.70;99.90;;;;;;5053844;28;20048;-72
2023/01/28 10:52:59;;;;;;;15.93;8.55;;;3.80;99.90;;;;;;5054902;28;20072;-73
2023/01/28 10:55:33;;;;;;;18.52;9.70;;;3.90;99.90;;;;;;5054816;28;20045;-73
2023/01/28 10:58:01;;;;;;;17.45;8.88;;;3.90;99.90;;;;;;5053603;28;20049;-73
2023/01/28 11:00:50;;;;;;;19.38;10.82;;;3.90;99.90;;;;;;5053310;28;20488;-73
2023/01/28 11:03:20;;;;;;;16.05;8.43;;;4.00;99.90;;;;;;5053401;28;20055;-73
2023/01/28 11:05:51;;;;;;;16.35;8.40;;;4.10;99.90;;;;;;5053136;28;20060;-73
2023/01/28 11:08:18;;;;;;;14.23;7.57;;;4.10;99.90;;;;;;5053238;28;20476;-73
2023/01/28 11:10:44;;;;;;;15.27;8.05;;;4.20;99.90;;;;;;5053374;28;20119;-73
2023/01/28 11:13:20;;;;;;;14.65;6.82;;;4.20;99.90;;;;;;5053253;28;20473;-73
2023/01/28 11:15:47;;;;;;;16.80;8.10;;;4.20;99.90;;;;;;5053019;28;20080;-73
2023/01/28 11:18:18;;;;;;;14.70;7.68;;;4.30;99.90;;;;;;5053082;28;20131;-73
2023/01/28 11:20:51;;;;;;;19.52;8.13;;;4.30;99.90;;;;;;5053205;28;20055;-73
2023/01/28 11:23:33;;;;;;;14.18;7.80;;;4.30;99.90;;;;;;5053186;28;20045;-73
2023/01/28 11:26:06;;;;;;;15.90;7.03;;;4.40;99.90;;;;;;5053145;28;20052;-73
2023/01/28 11:28:32;;;;;;;;;;;4.50;99.90;;;;;;5052857;28;20072;-73
2023/01/28 11:31:02;;;;;;;15.88;7.15;;;4.60;99.90;;;;;;5052678;28;19921;-73
2023/01/28 11:33:31;;;;;;;17.00;8.63;;;4.70;99.90;;;;;;5053008;28;20098;-73
2023/01/28 11:36:03;;;;;;;13.15;6.60;;;4.60;99.90;;;;;;5052854;28;20052;-73
2023/01/28 11:38:29;;;;;;;15.27;7.68;;;4.60;99.90;;;;;;5066406;28;20048;-73
2023/01/28 11:40:57;;;;;;;15.55;6.90;;;4.60;99.90;;;;;;5061469;28;20107;-73
2023/01/28 11:43:25;;;;;;;16.13;7.13;;;4.70;99.90;;;;;;5052619;28;20493;-73
2023/01/28 11:46:17;;;;;;;14.73;7.03;;;4.60;99.90;;;;;;5053717;28;20041;-73
2023/01/28 11:48:56;;;;;;;13.48;5.95;;;4.60;99.90;;;;;;5044492;28;20061;-73
2023/01/28 11:51:33;;;;;;;14.85;6.95;;;4.60;99.90;;;;;;5052449;28;20381;-73
2023/01/28 11:54:30;;;;;;;14.35;6.82;;;4.50;99.90;;;;;;5052616;28;20057;-73
2023/01/28 11:57:06;;;;;;;15.00;6.95;;;4.50;99.90;;;;;;5053702;28;20063;-73
2023/01/28 11:59:53;;;;;;;11.52;5.75;;;4.60;99.90;;;;;;5053163;28;20049;-73
2023/01/28 12:02:51;;;;;;;14.20;6.75;;;4.70;99.90;;;;;;5052158;28;20381;-73
2023/01/28 12:05:29;;;;;;;13.18;5.68;;;4.90;99.90;;;;;;5052455;28;20064;-73
2023/01/28 12:08:23;;;;;;;11.93;6.18;;;5.10;99.90;;;;;;5052366;28;20044;-73
2023/01/28 12:11:01;;;;;;;13.63;6.72;;;5.20;99.90;;;;;;5052277;28;20044;-73
2023/01/28 12:13:44;;;;;;;15.48;7.80;;;5.20;99.90;;;;;;5052380;28;20132;-73
2023/01/28 12:16:31;;;;;;;14.27;6.30;;;5.40;99.90;;;;;;5052371;28;20056;-73
2023/01/28 12:19:19;;;;;;;11.70;5.97;;;5.40;99.90;;;;;;5051895;28;20492;-73
2023/01/28 12:22:04;;;;;;;18.00;6.20;;;5.40;99.90;;;;;;5052026;28;20052;-73
2023/01/28 12:24:57;;;;;;;14.00;5.60;;;5.50;99.90;;;;;;5051932;28;20056;-73
2023/01/28 12:27:41;;;;;;;13.95;5.93;;;5.50;99.90;;;;;;5051948;28;20523;-73
2023/01/28 12:30:41;;;;;;;12.75;6.07;;;5.70;99.90;;;;;;5051940;28;20060;-73
2023/01/28 12:33:21;;;;;;;14.90;6.00;;;5.70;99.90;;;;;;5052107;28;20040;-74
2023/01/28 12:36:14;;;;;;;15.10;7.47;;;5.80;99.90;;;;;;5051889;28;20131;-73
2023/01/28 12:38:55;;;;;;;12.48;6.32;;;5.80;99.90;;;;;;5052074;28;20053;-73
2023/01/28 12:41:38;;;;;;;10.20;4.85;;;5.90;99.90;;;;;;5051957;28;20056;-74
2023/01/28 12:44:09;;;;;;;9.27;5.15;;;5.90;99.90;;;;;;5051850;28;20049;-74
2023/01/28 12:46:46;;;;;;;12.13;5.80;;;5.80;99.90;;;;;;5051803;28;20057;-74
2023/01/28 12:49:38;;;;;;;10.98;5.15;;;5.80;99.90;;;;;;5051619;28;20080;-73
2023/01/28 12:52:57;;;;;;;10.82;4.82;;;5.80;99.90;;;;;;5051903;28;20076;-74
2023/01/28 12:55:38;;;;;;;10.63;4.68;;;5.90;99.90;;;;;;5042798;28;20105;-74
2023/01/28 12:58:10;;;;;;;11.27;4.82;;;6.00;99.90;;;;;;5063700;28;20043;-74
2023/01/28 13:00:43;;;;;;;10.90;4.93;;;6.00;99.90;;;;;;5071853;28;20071;-74
2023/01/28 13:03:34;;;;;;;12.63;4.93;;;6.00;99.90;;;;;;5071603;28;20496;-74
2023/01/28 13:06:26;;;;;;;12.93;4.72;;;6.10;99.90;;;;;;5069725;28;20083;-73
2023/01/28 13:08:59;;;;;;;11.23;4.50;;;6.10;99.90;;;;;;5067514;28;20079;-73
2023/01/28 13:11:32;;;;;;;15.70;4.72;;;6.10;99.90;;;;;;5073442;28;20049;-74
2023/01/28 13:13:59;;;;;;;10.02;4.65;;;6.10;99.90;;;;;;5074324;28;20055;-73
2023/01/28 13:16:25;;;;;;;10.20;4.05;;;6.10;99.90;;;;;;5074757;28;20063;-73
2023/01/28 13:18:51;;;;;;;7.63;3.67;;;6.10;99.90;;;;;;5076565;28;20392;-73
2023/01/28 13:21:22;;;;;;;10.00;4.07;;;6.00;99.90;;;;;;5075004;28;20056;-73
2023/01/28 13:24:03;;;;;;;10.98;4.03;;;6.00;99.90;;;;;;5075394;28;20105;-73
2023/01/28 13:26:41;;;;;;;7.63;2.83;;;6.00;99.90;;;;;;5075049;28;20045;-73
2023/01/28 13:29:29;;;;;;;13.05;3.22;;;6.10;99.90;;;;;;5074518;28;20203;-73
2023/01/28 13:31:58;;;;;;;7.45;2.58;;;6.10;99.90;;;;;;5068021;28;20057;-73
2023/01/28 13:34:39;;;;;;;4.88;2.20;;;6.10;99.90;;;;;;5076199;28;20048;-73
2023/01/28 13:37:35;;;;;;;6.15;2.00;;;6.20;99.90;;;;;;5076448;28;20040;-73
2023/01/28 13:40:24;;;;;;;4.47;1.88;;;6.20;99.90;;;;;;5075021;28;20527;-74
2023/01/28 13:43:05;;;;;;;6.82;1.92;;;6.10;99.90;;;;;;5074769;28;20055;-73